Time;durP1;ratioP1;P1;durP2;ratioP2;P2;SDS_P1;SDS_P2;PMS_P1;PMS_P2;Temp;Humidity;BMP_temperature;BMP_pressure;BME280_temperature;BME280_humidity;BME280_pressure;Samples;Min_cycle;Max_cycle;Signal;HPM_P1;HPM_P2
2022/09/27 00:00:04;;;;;;;10.52;1.63;;;12.00;99.90;;;;;;5038136;28;20490;-75
2022/09/27 00:02:29;;;;;;;11.68;1.85;;;12.00;99.90;;;;;;5035658;28;20026;-75
2022/09/27 00:04:55;;;;;;;5.63;1.55;;;12.00;99.90;;;;;;5039306;28;20033;-75
2022/09/27 00:07:20;;;;;;;6.75;1.60;;;12.00;99.90;;;;;;5040017;28;20363;-75
2022/09/27 00:09:46;;;;;;;13.70;1.83;;;11.90;99.90;;;;;;5040586;28;20474;-74
2022/09/27 00:12:12;;;;;;;16.35;1.70;;;12.00;99.90;;;;;;5040124;28;20045;-76
2022/09/27 00:14:37;;;;;;;11.27;1.42;;;12.00;99.90;;;;;;5040208;28;20025;-77
2022/09/27 00:17:03;;;;;;;16.00;1.95;;;12.00;99.90;;;;;;5039080;28;20026;-76
2022/09/27 00:19:28;;;;;;;11.57;3.15;;;11.90;99.90;;;;;;5039652;28;20034;-76
2022/09/27 00:21:55;;;;;;;9.98;2.47;;;11.80;99.90;;;;;;5040684;28;20470;-74
2022/09/27 00:24:22;;;;;;;12.38;1.52;;;11.80;99.90;;;;;;5038966;28;20021;-74
2022/09/27 00:26:48;;;;;;;17.90;3.50;;;11.80;99.90;;;;;;5041403;28;20156;-74
2022/09/27 00:29:16;;;;;;;11.15;2.10;;;11.70;99.90;;;;;;5034509;28;20037;-75
2022/09/27 00:31:42;;;;;;;10.35;1.90;;;11.70;99.90;;;;;;5040665;28;20040;-74
2022/09/27 00:34:17;;;;;;;9.48;2.40;;;11.70;99.90;;;;;;5038851;28;20033;-76
2022/09/27 00:36:42;;;;;;;10.43;1.35;;;11.60;99.90;;;;;;5055897;28;20041;-75
2022/09/27 00:39:08;;;;;;;12.13;1.60;;;11.60;99.90;;;;;;5039528;28;20041;-75
2022/09/27 00:41:36;;;;;;;9.10;2.10;;;11.60;99.90;;;;;;5039312;28;20037;-77
2022/09/27 00:44:24;;;;;;;9.52;1.52;;;11.50;99.90;;;;;;5039022;28;20466;-76
2022/09/27 00:47:07;;;;;;;12.75;1.80;;;11.50;99.90;;;;;;5033017;28;20428;-74
2022/09/27 00:49:38;;;;;;;5.80;1.23;;;11.50;99.90;;;;;;5035573;28;20040;-75
2022/09/27 00:52:09;;;;;;;13.00;1.80;;;11.50;99.90;;;;;;5035764;28;20029;-76
2022/09/27 00:54:38;;;;;;;10.45;1.63;;;11.50;99.90;;;;;;5035435;28;20665;-76
2022/09/27 00:57:04;;;;;;;11.10;1.98;;;11.50;99.90;;;;;;5035587;28;20111;-76
2022/09/27 00:59:36;;;;;;;14.70;1.95;;;11.40;99.90;;;;;;5035207;28;20467;-76
2022/09/27 01:02:05;;;;;;;8.85;1.50;;;11.40;99.90;;;;;;5035506;28;20103;-76
2022/09/27 01:04:32;;;;;;;3.92;1.02;;;11.40;99.90;;;;;;5033651;28;20148;-74
2022/09/27 01:06:59;;;;;;;10.27;1.55;;;11.40;99.90;;;;;;5035434;28;20112;-75
2022/09/27 01:09:25;;;;;;;8.73;1.88;;;11.40;99.90;;;;;;5034719;28;20433;-75
2022/09/27 01:12:04;;;;;;;7.75;1.27;;;11.40;99.90;;;;;;5034365;28;20056;-74
2022/09/27 01:14:35;;;;;;;4.78;1.33;;;11.40;99.90;;;;;;5035098;28;20033;-75
2022/09/27 01:17:38;;;;;;;9.50;1.20;;;11.50;99.90;;;;;;5033688;28;20422;-74
2022/09/27 01:20:30;;;;;;;14.45;1.90;;;11.50;99.90;;;;;;5021533;28;20467;-79
2022/09/27 01:23:33;;;;;;;13.83;2.07;;;11.60;99.90;;;;;;5034678;28;20064;-76
2022/09/27 01:26:36;;;;;;;9.05;1.50;;;11.60;99.90;;;;;;5020466;28;20297;-77
2022/09/27 01:29:02;;;;;;;13.13;1.85;;;11.50;99.90;;;;;;5034892;28;20511;-77
2022/09/27 01:31:46;;;;;;;8.32;1.33;;;11.50;99.90;;;;;;5034314;28;20101;-76
2022/09/27 01:34:33;;;;;;;10.55;1.95;;;11.50;99.90;;;;;;5034291;28;20083;-77
2022/09/27 01:37:07;;;;;;;7.15;1.08;;;11.40;99.90;;;;;;5034306;28;20029;-76
2022/09/27 01:39:39;;;;;;;8.90;1.42;;;11.30;99.90;;;;;;5034277;28;20558;-76
2022/09/27 01:42:26;;;;;;;9.90;2.15;;;11.30;99.90;;;;;;5034171;28;20025;-75
2022/09/27 01:45:02;;;;;;;10.07;1.83;;;11.30;99.90;;;;;;5034180;28;20033;-75
2022/09/27 01:47:50;;;;;;;10.90;1.67;;;11.30;99.90;;;;;;5032989;28;20382;-75
2022/09/27 01:50:24;;;;;;;9.48;1.30;;;11.20;99.90;;;;;;5034238;28;20485;-76
2022/09/27 01:52:55;;;;;;;7.45;2.03;;;11.20;99.90;;;;;;5034411;28;20459;-76
2022/09/27 01:55:25;;;;;;;9.17;1.50;;;11.10;99.90;;;;;;5034172;28;20025;-76
2022/09/27 01:58:03;;;;;;;11.95;2.28;;;11.10;99.90;;;;;;5033993;28;20038;-75
2022/09/27 02:00:30;;;;;;;10.70;1.65;;;11.10;99.90;;;;;;5033851;28;20040;-76
2022/09/27 02:03:05;;;;;;;8.07;1.23;;;11.00;99.90;;;;;;5033808;28;20025;-75
2022/09/27 02:05:37;;;;;;;9.88;1.23;;;11.00;99.90;;;;;;5033630;28;20025;-76
2022/09/27 02:08:22;;;;;;;6.03;0.88;;;11.00;99.90;;;;;;5033536;28;20026;-74
2022/09/27 02:10:49;;;;;;;4.93;1.20;;;11.10;99.90;;;;;;5033681;28;20371;-75
2022/09/27 02:13:32;;;;;;;10.55;2.08;;;11.00;99.90;;;;;;5032567;28;20036;-76
2022/09/27 02:16:18;;;;;;;6.55;1.27;;;11.10;99.90;;;;;;5019566;28;20115;-76
2022/09/27 02:18:54;;;;;;;7.38;0.90;;;11.10;99.90;;;;;;5033775;28;20026;-75
2022/09/27 02:21:22;;;;;;;13.57;1.05;;;11.30;99.90;;;;;;5032068;28;20052;-75
2022/09/27 02:23:57;;;;;;;4.88;0.80;;;11.30;99.90;;;;;;5033594;28;20046;-76
2022/09/27 02:26:41;;;;;;;6.47;1.20;;;11.40;99.90;;;;;;5032325;28;20467;-75
2022/09/27 02:29:11;;;;;;;9.05;0.90;;;11.50;99.90;;;;;;5032121;28;20033;-75
2022/09/27 02:31:37;;;;;;;12.77;1.70;;;11.60;99.90;;;;;;5032997;28;20028;-75
2022/09/27 02:34:10;;;;;;;10.43;1.40;;;11.70;99.90;;;;;;5032050;28;20021;-76
2022/09/27 02:36:36;;;;;;;3.95;1.33;;;11.80;99.90;;;;;;5033352;28;20396;-75
2022/09/27 02:39:02;;;;;;;4.95;1.00;;;11.90;99.90;;;;;;5033502;28;20018;-76
2022/09/27 02:41:28;;;;;;;4.57;0.93;;;11.90;99.90;;;;;;5033112;28;20462;-75
2022/09/27 02:43:59;;;;;;;4.40;0.52;;;11.90;99.90;;;;;;5031318;28;20485;-76
2022/09/27 02:46:39;;;;;;;9.63;1.30;;;11.90;99.90;;;;;;5033644;28;20060;-76
2022/09/27 02:49:24;;;;;;;6.70;0.93;;;11.80;99.90;;;;;;5033021;28;20471;-76
2022/09/27 02:52:12;;;;;;;7.78;0.80;;;11.90;99.90;;;;;;5017981;28;20035;-75
2022/09/27 02:54:51;;;;;;;10.02;1.15;;;11.80;99.90;;;;;;5032672;28;20599;-76
2022/09/27 02:57:32;;;;;;;5.45;0.75;;;11.80;99.90;;;;;;5032851;28;20060;-76
2022/09/27 03:00:16;;;;;;;9.68;1.45;;;11.70;99.90;;;;;;5018358;28;20060;-77
2022/09/27 03:02:58;;;;;;;8.05;1.08;;;11.70;99.90;;;;;;5032647;28;20052;-76
2022/09/27 03:05:27;;;;;;;5.20;0.93;;;11.70;99.90;;;;;;5030764;28;20471;-75
2022/09/27 03:07:53;;;;;;;5.55;1.00;;;11.70;99.90;;;;;;5032718;28;20017;-76
2022/09/27 03:10:22;;;;;;;3.17;0.60;;;11.70;99.90;;;;;;5032407;28;20039;-76
2022/09/27 03:12:49;;;;;;;9.25;1.23;;;11.80;99.90;;;;;;5032000;28;20025;-77
2022/09/27 03:15:15;;;;;;;10.38;1.35;;;11.90;99.90;;;;;;5032510;28;20108;-76
2022/09/27 03:17:40;;;;;;;10.65;2.33;;;11.90;99.90;;;;;;5032483;28;20523;-75
2022/09/27 03:20:07;;;;;;;4.65;0.90;;;12.00;99.90;;;;;;5032342;28;20442;-77
2022/09/27 03:22:34;;;;;;;5.43;1.15;;;12.00;99.90;;;;;;5032545;28;20060;-76
2022/09/27 03:25:00;;;;;;;11.30;1.10;;;11.90;99.90;;;;;;5032532;28;20467;-76
2022/09/27 03:27:25;;;;;;;3.20;0.70;;;11.80;99.90;;;;;;5032510;28;20112;-77
2022/09/27 03:29:51;;;;;;;7.68;1.00;;;11.70;99.90;;;;;;5032273;28;20109;-76
2022/09/27 03:32:17;;;;;;;5.20;1.52;;;11.60;99.90;;;;;;5030935;28;20026;-76
2022/09/27 03:34:43;;;;;;;4.38;1.00;;;11.40;99.90;;;;;;5031113;28;20566;-77
2022/09/27 03:37:08;;;;;;;5.95;1.80;;;11.30;99.90;;;;;;5032331;28;20025;-75
2022/09/27 03:39:34;;;;;;;4.93;1.40;;;11.20;99.90;;;;;;5032307;28;20379;-76
2022/09/27 03:42:00;;;;;;;7.05;2.20;;;11.10;99.90;;;;;;5032236;28;20398;-77
2022/09/27 03:44:25;;;;;;;7.75;1.20;;;11.00;99.90;;;;;;5032135;28;20025;-77
2022/09/27 03:46:51;;;;;;;9.13;1.60;;;11.00;99.90;;;;;;5019105;28;20042;-77
2022/09/27 03:49:16;;;;;;;6.18;1.42;;;10.90;99.90;;;;;;5028539;28;20102;-76
2022/09/27 03:51:42;;;;;;;7.32;1.10;;;10.90;99.90;;;;;;5031467;28;20022;-75
2022/09/27 03:54:08;;;;;;;11.00;2.83;;;10.80;99.90;;;;;;5032319;28;20205;-77
2022/09/27 03:56:34;;;;;;;10.93;2.20;;;10.80;99.90;;;;;;5031552;28;20022;-77
2022/09/27 03:59:00;;;;;;;12.48;2.92;;;10.80;99.90;;;;;;5032180;28;20030;-75
2022/09/27 04:01:26;;;;;;;6.78;1.63;;;10.90;99.90;;;;;;5031504;28;20382;-77
2022/09/27 04:03:52;;;;;;;10.02;1.83;;;10.80;99.90;;;;;;5032014;28;20067;-76
2022/09/27 04:06:18;;;;;;;7.45;1.73;;;10.90;99.90;;;;;;5032112;28;20061;-76
2022/09/27 04:08:44;;;;;;;5.50;1.67;;;10.90;99.90;;;;;;5032065;28;20040;-76
2022/09/27 04:11:10;;;;;;;7.50;1.90;;;11.00;99.90;;;;;;5031893;28;20048;-75
2022/09/27 04:13:36;;;;;;;8.77;0.90;;;11.10;99.90;;;;;;5031657;28;20034;-76
2022/09/27 04:16:01;;;;;;;9.25;1.85;;;11.20;99.90;;;;;;5031994;28;20029;-76
2022/09/27 04:18:27;;;;;;;4.38;0.82;;;11.20;99.90;;;;;;5031983;28;20481;-76
2022/09/27 04:20:53;;;;;;;7.22;2.03;;;11.20;99.90;;;;;;5031905;28;20542;-76
2022/09/27 04:23:19;;;;;;;6.47;1.17;;;11.20;99.90;;;;;;5032023;28;20105;-76
2022/09/27 04:25:45;;;;;;;8.02;1.50;;;11.20;99.90;;;;;;5035892;28;20025;-77
2022/09/27 04:28:11;;;;;;;5.50;1.75;;;11.20;99.90;;;;;;5036098;28;20030;-77
2022/09/27 04:30:37;;;;;;;4.03;1.88;;;11.20;99.90;;;;;;5035569;28;20084;-76
2022/09/27 04:33:03;;;;;;;9.45;1.50;;;11.20;99.90;;;;;;5036095;28;20033;-78
2022/09/27 04:38:13;;;;;;;8.35;1.13;;;11.10;99.90;;;;;;5028270;28;20032;-75
2022/09/27 04:40:38;;;;;;;5.35;1.30;;;11.10;99.90;;;;;;5036072;28;20391;-76
2022/09/27 04:43:04;;;;;;;6.50;1.50;;;11.10;99.90;;;;;;5034932;28;20445;-75
2022/09/27 04:45:30;;;;;;;5.13;1.33;;;11.00;99.90;;;;;;5035142;28;20029;-77
2022/09/27 04:47:55;;;;;;;2.20;0.90;;;11.00;99.90;;;;;;5035692;28;20455;-76
2022/09/27 04:50:21;;;;;;;4.45;1.30;;;11.00;99.90;;;;;;5035227;28;20368;-76
2022/09/27 04:52:52;;;;;;;4.32;1.45;;;11.00;99.90;;;;;;5035416;28;20047;-76
2022/09/27 04:55:19;;;;;;;3.88;1.38;;;11.00;99.90;;;;;;5035128;28;20056;-77
2022/09/27 04:57:45;;;;;;;7.53;2.05;;;11.00;99.90;;;;;;5035555;28;20026;-77
2022/09/27 05:00:11;;;;;;;9.10;2.20;;;11.10;99.90;;;;;;5035361;28;20124;-77
2022/09/27 05:02:37;;;;;;;7.50;1.50;;;11.20;99.90;;;;;;5034130;28;20034;-77
2022/09/27 05:05:02;;;;;;;6.38;1.45;;;11.30;99.90;;;;;;5035329;28;20037;-75
2022/09/27 05:07:28;;;;;;;8.85;1.17;;;11.30;99.90;;;;;;5035093;28;20025;-76
2022/09/27 05:09:55;;;;;;;7.95;1.10;;;11.30;99.90;;;;;;5034926;28;20378;-77
2022/09/27 05:12:21;;;;;;;8.18;1.42;;;11.30;99.90;;;;;;5034709;28;20049;-75
2022/09/27 05:14:46;;;;;;;8.95;1.73;;;11.40;99.90;;;;;;5034958;28;20029;-76
2022/09/27 05:17:12;;;;;;;9.23;1.42;;;11.40;99.90;;;;;;5034551;28;20416;-77
2022/09/27 05:19:38;;;;;;;10.90;1.63;;;11.40;99.90;;;;;;5034896;28;20040;-77
2022/09/27 05:22:05;;;;;;;7.18;1.08;;;11.40;99.90;;;;;;5035251;28;20030;-76
2022/09/27 05:24:32;;;;;;;9.20;1.88;;;11.40;99.90;;;;;;5034985;28;20033;-77
2022/09/27 05:26:58;;;;;;;8.23;1.98;;;11.40;99.90;;;;;;5034451;28;20021;-76
2022/09/27 05:29:24;;;;;;;6.32;1.63;;;11.50;99.90;;;;;;5034677;28;20029;-77
2022/09/27 05:31:49;;;;;;;5.97;1.48;;;11.50;99.90;;;;;;5030659;28;20515;-76
2022/09/27 05:34:19;;;;;;;5.97;1.48;;;11.50;99.90;;;;;;5034231;28;20104;-78
2022/09/27 05:36:46;;;;;;;8.98;2.45;;;11.50;99.90;;;;;;5034465;28;20039;-76
2022/09/27 05:39:12;;;;;;;9.85;2.65;;;11.50;99.90;;;;;;5033978;28;20084;-76
2022/09/27 05:41:39;;;;;;;9.30;1.33;;;11.60;99.90;;;;;;5034742;28;20077;-75
2022/09/27 05:44:05;;;;;;;8.30;2.65;;;11.60;99.90;;;;;;5034663;28;20107;-76
2022/09/27 05:46:30;;;;;;;11.93;1.83;;;11.60;99.90;;;;;;5033904;28;20092;-76
2022/09/27 05:48:56;;;;;;;7.78;1.85;;;11.60;99.90;;;;;;5034051;28;20029;-76
2022/09/27 05:51:22;;;;;;;9.23;1.75;;;11.50;99.90;;;;;;5032465;28;20030;-76
2022/09/27 05:53:47;;;;;;;11.07;2.03;;;11.50;99.90;;;;;;5033591;28;20025;-75
2022/09/27 05:56:13;;;;;;;7.03;1.30;;;11.50;99.90;;;;;;5034116;28;20091;-76
2022/09/27 05:58:38;;;;;;;11.60;2.65;;;11.40;99.90;;;;;;5034205;28;20030;-77
2022/09/27 06:01:07;;;;;;;3.70;1.10;;;11.40;99.90;;;;;;5034007;28;20394;-76
2022/09/27 06:03:33;;;;;;;6.35;1.45;;;11.40;99.90;;;;;;5033752;28;20045;-76
2022/09/27 06:06:06;;;;;;;7.07;1.20;;;11.40;99.90;;;;;;5033697;28;20479;-73
2022/09/27 06:08:36;;;;;;;8.73;1.33;;;11.40;99.90;;;;;;5034141;28;20036;-77
2022/09/27 06:11:04;;;;;;;7.88;2.28;;;11.50;99.90;;;;;;5033511;28;20160;-77
2022/09/27 06:13:32;;;;;;;6.60;1.60;;;11.50;99.90;;;;;;5033940;28;20129;-78
2022/09/27 06:15:58;;;;;;;9.35;1.50;;;11.60;99.90;;;;;;5033490;28;20032;-75
2022/09/27 06:18:24;;;;;;;7.93;1.45;;;11.70;99.90;;;;;;5032913;28;20021;-76
2022/09/27 06:20:49;;;;;;;8.52;1.20;;;11.70;99.90;;;;;;5033135;28;20045;-76
2022/09/27 06:23:17;;;;;;;9.10;2.13;;;11.70;99.90;;;;;;5033357;28;20041;-76
2022/09/27 06:25:44;;;;;;;6.35;1.10;;;11.80;99.90;;;;;;5033974;28;20029;-76
2022/09/27 06:28:10;;;;;;;8.43;1.77;;;11.80;99.90;;;;;;5033414;28;20471;-76
2022/09/27 06:30:47;;;;;;;11.82;1.65;;;11.90;99.90;;;;;;5024253;28;20459;-76
2022/09/27 06:33:14;;;;;;;8.35;0.82;;;11.90;99.90;;;;;;5017314;28;20459;-77
2022/09/27 06:35:44;;;;;;;7.40;1.38;;;11.90;99.90;;;;;;5033664;28;20064;-75
2022/09/27 06:38:12;;;;;;;8.95;1.23;;;12.00;99.90;;;;;;5033587;28;20057;-78
2022/09/27 06:40:38;;;;;;;4.32;1.67;;;12.00;99.90;;;;;;5033669;28;20048;-75
2022/09/27 06:43:08;;;;;;;8.50;1.45;;;12.10;99.90;;;;;;5031885;28;20022;-75
2022/09/27 06:45:34;;;;;;;12.43;1.42;;;12.10;99.90;;;;;;5031680;28;20025;-77
2022/09/27 06:48:04;;;;;;;8.75;1.40;;;12.20;99.90;;;;;;5032265;28;20128;-77
2022/09/27 06:50:35;;;;;;;10.05;1.45;;;12.30;99.90;;;;;;5033602;28;20116;-76
2022/09/27 06:53:01;;;;;;;6.38;1.63;;;12.30;99.90;;;;;;5033661;28;20108;-77
2022/09/27 06:55:27;;;;;;;5.95;1.10;;;12.30;99.90;;;;;;5033424;28;20034;-76
2022/09/27 07:00:45;;;;;;;9.88;2.65;;;12.40;99.90;;;;;;5013513;28;20545;-75
2022/09/27 07:03:13;;;;;;;6.05;1.23;;;12.50;99.90;;;;;;5013718;28;20103;-75
2022/09/27 07:05:42;;;;;;;11.32;1.88;;;12.50;99.90;;;;;;5013777;28;20034;-77
2022/09/27 07:08:11;;;;;;;11.45;1.77;;;12.60;99.90;;;;;;5013938;28;20037;-76
2022/09/27 07:10:38;;;;;;;8.27;1.20;;;12.60;99.90;;;;;;5011988;28;20045;-75
2022/09/27 07:13:08;;;;;;;6.40;1.55;;;12.70;99.90;;;;;;5011849;28;20026;-76
2022/09/27 07:15:36;;;;;;;5.88;1.25;;;12.70;99.90;;;;;;5013310;28;20037;-76
2022/09/27 07:18:03;;;;;;;8.13;1.60;;;12.80;99.90;;;;;;5039990;28;20025;-75
2022/09/27 07:20:28;;;;;;;14.23;1.92;;;12.80;99.90;;;;;;5052544;28;20052;-76
2022/09/27 07:22:54;;;;;;;5.78;1.55;;;12.80;99.90;;;;;;5052438;28;20491;-77
2022/09/27 07:25:21;;;;;;;5.43;1.08;;;12.70;99.90;;;;;;5052857;28;20133;-78
2022/09/27 07:27:47;;;;;;;5.25;1.23;;;12.70;99.90;;;;;;5052960;28;20748;-75
2022/09/27 07:30:13;;;;;;;7.15;1.55;;;12.60;99.90;;;;;;5052833;28;20033;-75
2022/09/27 07:32:39;;;;;;;6.38;1.02;;;12.60;99.90;;;;;;5052330;28;20029;-75
2022/09/27 07:35:06;;;;;;;2.70;0.90;;;12.50;99.90;;;;;;5052831;28;20029;-75
2022/09/27 07:37:33;;;;;;;5.03;1.27;;;12.50;99.90;;;;;;5043344;28;20394;-77
2022/09/27 07:40:00;;;;;;;3.25;0.82;;;12.50;99.90;;;;;;5041395;28;20029;-75
2022/09/27 07:42:27;;;;;;;7.40;1.20;;;12.50;99.90;;;;;;5048416;28;20037;-76
2022/09/27 07:44:54;;;;;;;8.10;1.08;;;12.50;99.90;;;;;;5032491;28;20025;-73
2022/09/27 07:47:22;;;;;;;7.47;1.02;;;12.50;99.90;;;;;;5032800;28;20033;-75
2022/09/27 07:49:48;;;;;;;7.10;2.08;;;12.60;99.90;;;;;;5032390;28;20091;-76
2022/09/27 07:52:14;;;;;;;9.00;1.40;;;12.60;99.90;;;;;;5032012;28;20378;-77
2022/09/27 07:54:39;;;;;;;4.35;1.20;;;12.50;99.90;;;;;;5031333;28;20124;-77
2022/09/27 07:57:08;;;;;;;6.28;1.00;;;12.50;99.90;;;;;;5032515;28;20034;-76
2022/09/27 07:59:33;;;;;;;5.38;1.25;;;12.40;99.90;;;;;;5032409;28;20382;-77
2022/09/27 08:01:59;;;;;;;9.65;1.30;;;12.30;99.90;;;;;;5041970;28;20045;-76
2022/09/27 08:04:24;;;;;;;7.32;1.00;;;12.30;99.90;;;;;;5030061;28;20034;-76
2022/09/27 08:06:50;;;;;;;8.50;1.40;;;12.20;99.90;;;;;;5031262;28;20033;-77
2022/09/27 08:09:16;;;;;;;12.57;1.80;;;12.20;99.90;;;;;;5031264;28;20037;-75
2022/09/27 08:11:43;;;;;;;8.10;1.30;;;12.20;99.90;;;;;;5031851;28;20470;-76
2022/09/27 08:14:09;;;;;;;9.07;1.42;;;12.10;99.90;;;;;;5032460;28;20408;-76
2022/09/27 08:16:35;;;;;;;6.47;1.52;;;12.10;99.90;;;;;;5031666;28;20033;-76
2022/09/27 08:19:00;;;;;;;5.10;0.93;;;12.00;99.90;;;;;;5032091;28;20565;-76
2022/09/27 08:21:26;;;;;;;5.43;1.08;;;11.90;99.90;;;;;;5032281;28;20049;-75
2022/09/27 08:23:52;;;;;;;4.53;1.08;;;11.80;99.90;;;;;;5031205;28;20033;-75
2022/09/27 08:26:18;;;;;;;6.22;1.13;;;11.80;99.90;;;;;;5031926;28;20026;-75
2022/09/27 08:28:46;;;;;;;8.25;2.50;;;11.80;99.90;;;;;;5032762;28;20374;-76
2022/09/27 08:31:12;;;;;;;7.72;1.40;;;11.80;99.90;;;;;;5032389;28;20034;-74
2022/09/27 08:33:38;;;;;;;6.65;1.60;;;11.80;99.90;;;;;;5031978;28;20382;-75
2022/09/27 08:36:09;;;;;;;10.75;1.52;;;11.80;99.90;;;;;;5031023;28;20041;-75
2022/09/27 08:38:34;;;;;;;5.53;1.40;;;11.80;99.90;;;;;;5031605;28;20029;-75
2022/09/27 08:41:08;;;;;;;15.48;1.65;;;11.80;99.90;;;;;;5030216;28;20041;-76
2022/09/27 08:43:51;;;;;;;6.20;1.90;;;11.70;99.90;;;;;;5031185;28;20025;-76
2022/09/27 08:46:18;;;;;;;8.95;1.90;;;11.60;99.90;;;;;;5018318;28;20072;-76
2022/09/27 08:48:49;;;;;;;18.00;4.35;;;11.50;99.90;;;;;;5031303;28;20121;-76
2022/09/27 08:51:15;;;;;;;11.30;2.03;;;11.40;99.90;;;;;;5031922;28;20028;-75
2022/09/27 08:54:28;;;;;;;15.40;1.77;;;11.30;99.90;;;;;;5027301;28;20561;-75
2022/09/27 08:56:58;;;;;;;;;;;11.10;99.90;;;;;;4994763;28;20042;-74
2022/09/27 08:59:29;;;;;;;6.00;1.08;;;10.80;99.90;;;;;;5031866;28;20003;-75
2022/09/27 09:01:56;;;;;;;5.13;0.90;;;10.70;99.90;;;;;;5031844;28;20065;-76
2022/09/27 09:04:38;;;;;;;4.57;1.35;;;10.50;99.90;;;;;;5031713;28;20540;-76
2022/09/27 09:07:17;;;;;;;10.25;1.75;;;10.40;99.90;;;;;;5017626;28;20589;-76
2022/09/27 09:12:45;;;;;;;9.38;2.28;;;10.30;99.90;;;;;;5031485;28;20160;-75
2022/09/27 09:13:44;;;;;;;10.05;1.38;;;10.20;99.90;;;;;;5035243;28;20133;-79
2022/09/27 09:16:12;;;;;;;11.65;1.50;;;10.10;99.90;;;;;;5033918;28;20446;-76
2022/09/27 09:18:54;;;;;;;8.60;1.20;;;10.10;99.90;;;;;;5034994;28;20026;-76
2022/09/27 09:21:35;;;;;;;9.07;1.83;;;10.10;99.90;;;;;;5033532;28;20030;-76
2022/09/27 09:24:40;;;;;;;6.40;1.55;;;10.10;99.90;;;;;;5035472;28;20029;-77
2022/09/27 09:27:23;;;;;;;9.48;2.80;;;10.20;99.90;;;;;;5018625;28;20062;-77
2022/09/27 09:30:04;;;;;;;12.40;2.15;;;10.30;99.90;;;;;;5034881;28;20129;-76
2022/09/27 09:32:52;;;;;;;6.60;1.10;;;10.40;99.90;;;;;;5034567;28;20036;-75
2022/09/27 09:35:23;;;;;;;5.85;1.58;;;10.60;99.90;;;;;;5034678;28;20033;-76
2022/09/27 09:37:57;;;;;;;6.57;1.23;;;10.80;99.90;;;;;;5034557;28;20573;-76
2022/09/27 09:40:43;;;;;;;9.35;2.28;;;11.00;99.90;;;;;;5034288;28;20021;-74
2022/09/27 09:43:20;;;;;;;8.45;1.77;;;11.20;99.90;;;;;;5034610;28;20037;-75
2022/09/27 09:45:54;;;;;;;11.10;3.05;;;11.40;99.90;;;;;;5033652;28;20025;-76
2022/09/27 09:48:40;;;;;;;7.57;2.25;;;11.40;99.90;;;;;;5034829;28;20025;-76
2022/09/27 09:51:10;;;;;;;8.10;2.10;;;11.40;99.90;;;;;;5034720;28;20548;-75
2022/09/27 09:54:08;;;;;;;12.68;1.85;;;11.40;99.90;;;;;;5034945;28;20053;-75
2022/09/27 09:57:00;;;;;;;13.77;2.80;;;11.40;99.90;;;;;;5033363;28;20116;-75
2022/09/27 09:59:37;;;;;;;11.45;2.35;;;11.50;99.90;;;;;;5033403;28;20029;-76
2022/09/27 10:02:14;;;;;;;8.98;2.22;;;11.50;99.90;;;;;;5035032;28;20037;-75
2022/09/27 10:04:39;;;;;;;6.32;1.95;;;11.50;99.90;;;;;;5035089;28;20025;-75
2022/09/27 10:07:07;;;;;;;10.18;2.00;;;11.60;99.90;;;;;;5034290;28;20030;-74
2022/09/27 10:09:32;;;;;;;7.88;1.77;;;11.80;99.90;;;;;;5034560;28;20028;-75
2022/09/27 10:11:58;;;;;;;10.93;2.28;;;11.90;99.90;;;;;;5033736;28;20057;-75
2022/09/27 10:14:26;;;;;;;7.75;1.70;;;11.90;99.90;;;;;;5032055;28;20120;-75
2022/09/27 10:16:59;;;;;;;23.83;6.88;;;12.00;99.90;;;;;;5027549;28;20129;-75
2022/09/27 10:19:29;;;;;;;20.17;6.97;;;12.00;99.90;;;;;;5032412;28;20538;-75
2022/09/27 10:22:18;;;;;;;24.30;7.38;;;12.10;99.90;;;;;;5028642;28;20064;-75
2022/09/27 10:24:56;;;;;;;21.23;5.55;;;12.00;99.90;;;;;;5025838;28;20037;-75
2022/09/27 10:27:24;;;;;;;14.75;4.13;;;11.90;99.90;;;;;;5033033;28;20041;-76
2022/09/27 10:29:59;;;;;;;18.88;5.63;;;11.90;99.90;;;;;;5033327;28;20028;-76
2022/09/27 10:32:31;;;;;;;21.02;6.70;;;11.80;99.90;;;;;;5024899;28;20044;-76
2022/09/27 10:35:17;;;;;;;13.68;3.22;;;11.80;99.90;;;;;;5032580;28;20030;-76
2022/09/27 10:37:44;;;;;;;17.85;5.30;;;11.80;99.90;;;;;;5031805;28;20029;-75
2022/09/27 10:40:25;;;;;;;12.90;3.05;;;11.80;99.90;;;;;;5033840;28;20451;-76
2022/09/27 10:42:51;;;;;;;7.68;1.30;;;11.80;99.90;;;;;;5034314;28;20117;-76
2022/09/27 10:45:27;;;;;;;11.38;1.77;;;11.70;99.90;;;;;;5042998;28;20167;-75
2022/09/27 10:47:53;;;;;;;13.73;2.60;;;11.50;99.90;;;;;;5041013;28;20083;-75
2022/09/27 10:50:25;;;;;;;15.77;4.32;;;11.40;99.90;;;;;;5041421;28;20047;-76
2022/09/27 10:53:10;;;;;;;21.63;6.93;;;11.40;99.90;;;;;;5039450;28;20033;-76
2022/09/27 10:55:38;;;;;;;9.65;1.83;;;11.50;99.90;;;;;;5040691;28;20025;-76
2022/09/27 10:58:05;;;;;;;13.13;2.25;;;11.60;99.90;;;;;;5041138;28;20542;-76
2022/09/27 11:00:33;;;;;;;10.20;2.47;;;11.60;99.90;;;;;;5040087;28;20386;-74
2022/09/27 11:03:04;;;;;;;13.30;3.72;;;11.70;99.90;;;;;;5043127;28;20027;-74
2022/09/27 11:05:32;;;;;;;12.85;2.10;;;11.80;99.90;;;;;;5039961;28;20034;-75
2022/09/27 11:08:01;;;;;;;16.17;3.85;;;11.90;99.90;;;;;;5041193;28;20043;-75
2022/09/27 11:10:33;;;;;;;11.85;2.88;;;11.90;99.90;;;;;;5042060;28;20049;-75
2022/09/27 11:13:18;;;;;;;6.78;1.23;;;12.00;99.90;;;;;;5039307;28;20070;-74
2022/09/27 11:15:50;;;;;;;11.68;2.53;;;12.10;99.90;;;;;;5042677;28;20040;-75
2022/09/27 11:18:29;;;;;;;9.70;2.28;;;12.20;99.90;;;;;;5042494;28;20040;-76
2022/09/27 11:21:17;;;;;;;13.07;2.78;;;12.30;99.90;;;;;;5040283;28;20516;-75
2022/09/27 11:24:34;;;;;;;7.90;2.33;;;12.50;99.90;;;;;;5030810;28;20033;-76
2022/09/27 11:27:22;;;;;;;8.15;1.65;;;12.70;99.90;;;;;;5040131;28;20029;-75
2022/09/27 11:30:11;;;;;;;10.82;2.13;;;12.80;99.90;;;;;;5035569;28;20035;-76
2022/09/27 11:32:56;;;;;;;13.60;2.25;;;12.70;99.90;;;;;;5040780;28;20030;-76
2022/09/27 11:35:48;;;;;;;6.50;1.65;;;12.60;99.90;;;;;;5041931;28;20028;-74
2022/09/27 11:38:40;;;;;;;11.30;1.95;;;12.50;99.90;;;;;;5028693;28;20059;-75
2022/09/27 11:41:25;;;;;;;5.70;2.08;;;12.20;99.90;;;;;;5030558;28;20025;-76
2022/09/27 11:44:22;;;;;;;9.23;2.03;;;12.00;99.90;;;;;;5029154;28;20145;-75
2022/09/27 11:47:24;;;;;;;7.60;1.67;;;11.80;99.90;;;;;;5027358;28;20018;-75
2022/09/27 11:50:30;;;;;;;16.52;2.25;;;11.60;99.90;;;;;;5012873;28;20026;-74
2022/09/27 11:53:10;;;;;;;27.05;3.75;;;11.40;99.90;;;;;;5027562;28;20120;-73
2022/09/27 11:55:58;;;;;;;10.95;1.77;;;11.10;99.90;;;;;;5039259;28;20108;-74
2022/09/27 11:58:47;;;;;;;8.52;2.22;;;10.90;99.90;;;;;;5038708;28;20022;-75
2022/09/27 12:01:18;;;;;;;9.88;3.08;;;10.60;99.90;;;;;;5041198;28;20025;-76
2022/09/27 12:04:01;;;;;;;8.63;2.00;;;10.40;99.90;;;;;;5030219;28;20029;-75
2022/09/27 12:06:57;;;;;;;8.82;2.40;;;10.30;99.90;;;;;;5034797;28;20461;-76
2022/09/27 12:09:30;;;;;;;17.42;5.32;;;10.40;99.90;;;;;;5029907;28;20120;-75
2022/09/27 12:12:16;;;;;;;6.50;1.80;;;10.60;99.90;;;;;;5029358;28;20053;-74
2022/09/27 12:14:46;;;;;;;12.65;2.95;;;10.80;99.90;;;;;;5011868;28;20037;-75
2022/09/27 12:17:21;;;;;;;10.43;1.95;;;11.00;99.90;;;;;;5030473;28;20045;-74
2022/09/27 12:19:51;;;;;;;8.95;2.90;;;11.20;99.90;;;;;;5027464;28;20466;-74
2022/09/27 12:22:25;;;;;;;10.85;2.33;;;11.30;99.90;;;;;;5028480;28;20482;-74
2022/09/27 12:24:51;;;;;;;17.23;3.50;;;11.50;99.90;;;;;;5046123;28;20215;-74
2022/09/27 12:28:05;;;;;;;12.73;4.30;;;11.50;99.90;;;;;;5031873;28;20026;-74
2022/09/27 12:30:36;;;;;;;15.68;2.45;;;11.60;99.90;;;;;;4997332;28;20034;-74
2022/09/27 12:33:14;;;;;;;14.57;2.60;;;11.60;99.90;;;;;;5027794;28;20046;-74
2022/09/27 12:35:45;;;;;;;9.30;2.72;;;11.70;99.90;;;;;;5029983;28;20048;-75
2022/09/27 12:38:27;;;;;;;11.43;2.25;;;11.80;99.90;;;;;;5031024;28;20060;-74
2022/09/27 12:40:57;;;;;;;;;;;11.80;99.90;;;;;;5030479;28;20037;-74
2022/09/27 12:43:31;;;;;;;9.50;2.00;;;11.90;99.90;;;;;;5031597;28;19909;-75
2022/09/27 12:46:16;;;;;;;7.03;2.58;;;12.00;99.90;;;;;;5034120;28;20463;-74
2022/09/27 12:48:56;;;;;;;10.27;2.17;;;12.20;99.90;;;;;;5021237;28;20552;-74
2022/09/27 12:51:23;;;;;;;7.35;1.70;;;12.30;99.90;;;;;;5035215;28;20064;-74
2022/09/27 12:54:21;;;;;;;7.57;2.20;;;12.20;99.90;;;;;;5033505;28;20045;-73
2022/09/27 12:57:03;;;;;;;9.32;3.00;;;12.30;99.90;;;;;;5048707;28;20091;-74
2022/09/27 12:59:50;;;;;;;10.00;2.03;;;12.50;99.90;;;;;;5033214;28;20032;-74
2022/09/27 13:02:40;;;;;;;8.25;2.40;;;12.90;99.90;;;;;;5033053;28;20417;-75
2022/09/27 13:05:34;;;;;;;5.80;1.52;;;13.30;99.90;;;;;;5035000;28;20040;-75
2022/09/27 13:08:26;;;;;;;10.57;2.78;;;13.80;99.90;;;;;;5035264;28;20025;-74
2022/09/27 13:11:05;;;;;;;15.30;3.80;;;14.30;99.90;;;;;;5035794;28;20060;-74
2022/09/27 13:13:33;;;;;;;12.60;4.07;;;14.70;99.90;;;;;;5028623;28;20494;-76
2022/09/27 13:16:02;;;;;;;8.85;2.67;;;15.00;99.90;;;;;;5033505;28;20554;-76